Flight Track Log - Related Links

Times and Time Zones

All times are in EDT time to prevent confusion due to time zone crossing. See the N107US flight status page for this flight to view local times or setup timezone preferences in your user account.

Time Position Orientation Groundspeed Altitude Reporting Facility
EDT Latitude Longitude Course Direction KTS MPH feet Rate Location/Type
Tue 05:29:29 PM 41.9167 -87.8833 90° East 196 226 2,600  Level Chicago TRACON
Tue 05:30:35 PM 41.9333 -87.7833 77° East 250 288 5,000 1,417 Climbing Chicago TRACON
Tue 05:31:00 PM 41.9551 -87.4221 97° East  Level FlightAware Approximate
Tue 05:31:36 PM 41.9333 -87.6667 90° East 292 336 5,600  Level Chicago TRACON
Tue 05:32:00 PM 41.9427 -87.2634 95° East  Level FlightAware Approximate
Tue 05:32:36 PM 41.9333 -87.5667 90° East 308 354 8,000  Level Chicago TRACON
Tue 05:33:00 PM 41.9333 -87.1045 90° East  Level FlightAware Approximate
Tue 05:34:00 PM 41.9333 -86.9450 90° East  Level FlightAware Approximate
Tue 05:34:24 PM 41.9383 -87.3681 88° East 323 372 12,100  Level Chicago Center
Tue 05:35:27 PM 41.9419 -87.2106 88° East 358 412 13,800 1,824 Climbing Chicago Center
Tue 05:36:29 PM 41.9442 -87.0628 89° East 393 452 15,900 2,032 Climbing Chicago Center
Tue 05:37:31 PM 41.9461 -86.9122 89° East 403 464 18,000 1,984 Climbing Chicago Center
Tue 05:38:33 PM 41.9497 -86.7619 88° East 406 467 20,000 1,935 Climbing Chicago Center
Tue 05:39:35 PM 41.9519 -86.5839 89° East 417 480 22,000 1,694 Climbing Chicago Center
Tue 05:40:37 PM 41.9531 -86.4244 89° East 425 489 23,500 1,355 Climbing Chicago Center
Tue 05:41:39 PM 41.9550 -86.2628 89° East 432 497 24,800 1,161 Climbing Chicago Center
Tue 05:42:41 PM 41.9450 -86.0958 95° East 445 512 25,900 1,065 Climbing Chicago Center
Tue 05:43:43 PM 41.9289 -85.9253 97° East 459 528 27,000 1,065 Climbing Chicago Center
Tue 05:44:45 PM 41.9119 -85.7514 97° East 466 536 28,100 1,104 Climbing Chicago Center
Tue 05:45:48 PM 41.8919 -85.5369 97° East 477 549 29,300 1,104 Climbing Chicago Center
Tue 05:46:50 PM 41.8744 -85.3569 97° East 480 552 30,400 1,306 Climbing Chicago Center
Tue 05:47:52 PM 41.8567 -85.1794 98° East 473 544 32,000 1,210 Climbing Chicago Center
Tue 05:48:54 PM 41.8403 -85.0050 97° East 470 541 32,900 968 Climbing Chicago Center
Tue 05:49:56 PM 41.8219 -84.8303 98° East 473 544 34,000 1,073 Climbing Chicago Center
Tue 05:50:57 PM 41.8061 -84.6617 97° East 462 532 35,100 893 Climbing Cleveland Center
Tue 05:51:57 PM 41.7869 -84.4933 99° East 462 532 35,800 650 Climbing Cleveland Center
Tue 05:52:57 PM 41.7781 -84.3231 94° East 462 532 36,400 600 Climbing Cleveland Center
Tue 05:53:57 PM 41.7733 -84.1417 92° East 457 526 37,000 300 Climbing Cleveland Center
Tue 05:54:57 PM 41.7725 -83.9661 90° East 457 526 37,000  Level Cleveland Center
Tue 05:55:57 PM 41.7711 -83.7906 91° East 462 532 37,000  Level Cleveland Center
Tue 05:56:57 PM 41.7675 -83.6206 92° East 462 532 37,000  Level Cleveland Center
Tue 05:57:57 PM 41.7572 -83.4503 95° East 462 532 37,000  Level Cleveland Center
Tue 05:58:57 PM 41.7425 -83.2856 97° East 457 526 37,000  Level Cleveland Center
Tue 05:59:57 PM 41.7256 -83.1178 98° East 457 526 37,000  Level Cleveland Center
Tue 06:00:57 PM 41.7103 -82.9531 97° East 451 519 37,000  Level Cleveland Center
Tue 06:01:57 PM 41.6928 -82.7856 98° East 451 519 37,000 -50 Level Cleveland Center
Tue 06:02:57 PM 41.6750 -82.6181 98° East 451 519 36,900 -450 Descending Cleveland Center
Tue 06:03:57 PM 41.6592 -82.4508 97° East 451 519 36,100 -800 Descending Cleveland Center
Tue 06:04:57 PM 41.6447 -82.3031 97° East 451 519 35,300 -550 Descending Cleveland Center
Tue 06:05:57 PM 41.6242 -82.1331 99° East 451 519 35,000 -150 Descending Cleveland Center
Tue 06:06:57 PM 41.6078 -81.9633 97° East 451 519 35,000  Level Cleveland Center
Tue 06:07:57 PM 41.5908 -81.7936 98° East 456 525 35,000  Level Cleveland Center
Tue 06:08:57 PM 41.5697 -81.6072 99° East 456 525 35,000  Level Cleveland Center
Tue 06:09:57 PM 41.5503 -81.4378 99° East 465 535 35,000  Level Cleveland Center
Tue 06:10:57 PM 41.5264 -81.2708 101° East 465 535 35,000  Level Cleveland Center
Tue 06:11:57 PM 41.4731 -81.1153 115° Southeast 459 528 35,000  Level Cleveland Center
Tue 06:12:57 PM 41.3861 -80.9817 131° Southeast 463 533 35,000  Level Cleveland Center
Tue 06:13:57 PM 41.2967 -80.8594 134° Southeast 463 533 35,000  Level Cleveland Center
Tue 06:14:57 PM 41.2156 -80.7458 133° Southeast 463 533 35,000  Level Cleveland Center
Tue 06:15:57 PM 41.1158 -80.6106 134° Southeast 463 533 35,000  Level Cleveland Center
Tue 06:16:57 PM 41.0386 -80.4978 132° Southeast 458 527 35,000  Level Cleveland Center
Tue 06:17:57 PM 40.9467 -80.3742 135° Southeast 458 527 35,000  Level Cleveland Center
Tue 06:18:57 PM 40.8567 -80.2508 134° Southeast 458 527 35,000  Level Cleveland Center
Tue 06:19:57 PM 40.7875 -80.1114 123° Southeast 458 527 35,000  Level Cleveland Center
Tue 06:20:57 PM 40.7347 -79.9611 115° Southeast 452 520 35,000  Level Cleveland Center
Tue 06:21:57 PM 40.6794 -79.8111 116° Southeast 452 520 35,000  Level Cleveland Center
Tue 06:22:57 PM 40.6242 -79.6586 115° Southeast 452 520 35,000  Level Cleveland Center
Tue 06:23:57 PM 40.5686 -79.5089 116° Southeast 452 520 35,000  Level Cleveland Center
Tue 06:24:57 PM 40.5294 -79.3511 108° East 452 520 35,000  Level Cleveland Center
Tue 06:25:57 PM 40.5006 -79.1933 103° East 446 513 35,000  Level Cleveland Center
Tue 06:26:57 PM 40.4778 -79.0328 101° East 441 507 35,000  Level Cleveland Center
Tue 06:27:57 PM 40.4525 -78.8694 101° East 447 514 35,000 -400 Level Cleveland Center
Tue 06:28:57 PM 40.4292 -78.7092 101° East 447 514 34,200 -1,000 Descending Cleveland Center
Tue 06:29:57 PM 40.4011 -78.5328 102° East 452 520 33,000 -1,552 Descending Cleveland Center
Tue 06:31:51 PM 40.3569 -78.2375 101° East 456 525 29,700 -2,182 Descending New York Center
Tue 06:32:53 PM 40.3297 -78.0711 102° East 461 531 26,600 -2,311 Descending New York Center
Tue 06:33:53 PM 40.3106 -77.9056 99° East 461 531 25,000 -942 Descending New York Center
Tue 06:34:54 PM 40.3103 -77.7342 90° East 454 522 24,700 -1,008 Descending New York Center
Tue 06:35:52 PM 40.3078 -77.5650 91° East 464 534 23,000 -958 Descending New York Center
Tue 06:36:53 PM 40.3050 -77.3933 91° East 469 540 22,800 -496 Descending New York Center
Tue 06:37:53 PM 40.2825 -77.2358 101° East 457 526 22,000 -900 Descending New York Center
Tue 06:38:53 PM 40.2642 -77.0736 98° East 444 511 21,000 -992 Descending New York Center
Tue 06:39:54 PM 40.2431 -76.9194 100° East 438 504 20,000 -1,059 Descending New York Center
Tue 06:40:52 PM 40.2206 -76.7489 100° East 432 497 18,900 -1,008 Descending New York Center
Tue 06:41:53 PM 40.2008 -76.6003 100° East 432 497 18,000 -1,240 Descending New York Center
Tue 06:42:53 PM 40.1842 -76.4711 100° East 417 480 16,400 -1,750 Descending New York Center
Tue 06:43:53 PM 40.1639 -76.3283 100° East 403 464 14,500 -2,083 Descending New York Center
Tue 06:44:54 PM 40.1417 -76.1772 101° East 392 451 12,200 -1,831 Descending New York Center
Tue 06:45:51 PM 40.1250 -76.0428 99° East 381 438 10,900 -1,017 Descending New York Center
Tue 06:46:52 PM 40.1106 -75.9467 101° East 326 375 10,200 -843 Descending New York Center
Tue 06:47:52 PM 40.0944 -75.8369 101° East 288 331 9,200 -1,041 Descending New York Center
Tue 06:48:53 PM 40.0814 -75.7519 101° East 268 308 8,100 -590 Descending New York Center
Tue 06:49:54 PM 40.1222 -75.6733 56° Northeast 223 257 8,000 -496 Descending New York Center
Tue 06:50:54 PM 40.1617 -75.6217 45° Northeast 223 257 7,100 -966 Descending New York Center
Tue 06:51:52 PM 40.1736 -75.5356 80° East 212 244 6,100 -550 Descending New York Center
Tue 06:52:54 PM 40.1381 -75.4872 134° Southeast 204 235 6,000 -49 Descending New York Center
Tue 06:53:54 PM 40.0817 -75.4372 146° Southeast 215 247 6,000  Level New York Center
Tue 06:54:52 PM 40.0306 -75.4119 159° South 220 253 6,000  Level New York Center
Tue 06:55:52 PM 39.9647 -75.3914 167° South 225 259 6,000  Level New York Center
Tue 06:56:53 PM 39.9222 -75.4131 201° Southwest 175 201 6,000 -298 Level New York Center
Tue 06:57:53 PM 39.9106 -75.4933 259° West 171 197 5,400 -496 Descending New York Center
Tue 06:58:54 PM 39.8933 -75.5600 251° West 205 236 5,000 -424 Descending New York Center
Tue 07:01:11 PM 39.8167 -75.6500 222° Southwest 185 213 4,000 -305 Descending Philadelphia TRACON
Tue 07:02:11 PM 39.8000 -75.6000 113° Southeast 170 196 4,000  Level Philadelphia TRACON
Tue 07:03:11 PM 39.8000 -75.5500 90° East 169 194 4,000 -347 Level Philadelphia TRACON
Tue 07:04:12 PM 39.8167 -75.4833 72° East 169 194 3,300 -800 Descending Philadelphia TRACON
Tue 07:05:11 PM 39.8333 -75.4333 67° East 162 186 2,400 -915 Descending Philadelphia TRACON

Login

Don't have an account? Register now (free) for customized features, flight alerts, and more!